Time;durP1;ratioP1;P1;durP2;ratioP2;P2;SDS_P1;SDS_P2;PMS_P1;PMS_P2;Temp;Humidity;BMP_temperature;BMP_pressure;BME280_temperature;BME280_humidity;BME280_pressure;Samples;Min_cycle;Max_cycle;Signal;HPM_P1;HPM_P2
2022/05/23 00:00:01;;;;;;;8.33;4.87;;;25.20;99.90;;;;;;1958225;72;22696;-82
2022/05/23 00:03:13;;;;;;;6.72;4.33;;;25.10;99.90;;;;;;1899152;75;21098;-82
2022/05/23 00:09:04;;;;;;;8.80;4.90;;;25.00;99.90;;;;;;1950367;72;22134;-82
2022/05/23 00:12:14;;;;;;;7.67;4.70;;;25.00;99.90;;;;;;1895709;75;21055;-82
2022/05/23 00:15:24;;;;;;;11.15;5.00;;;24.90;99.90;;;;;;1895855;75;21100;-81
2022/05/23 00:20:54;;;;;;;7.17;5.37;;;24.80;99.90;;;;;;1945564;72;22150;-82
2022/05/23 00:24:05;;;;;;;10.18;5.62;;;24.80;99.90;;;;;;1903008;75;21129;-83
2022/05/23 00:29:54;;;;;;;9.95;5.03;;;24.50;99.90;;;;;;1953825;72;22171;-82
2022/05/23 00:36:32;;;;;;;;;;;24.20;99.90;;;;;;1908439;75;21233;-82
2022/05/23 00:39:23;;;;;;;8.50;6.10;;;24.10;99.90;;;;;;1884780;76;20145;-82
2022/05/23 00:45:27;;;;;;;7.17;5.40;;;23.90;99.90;;;;;;1885726;75;21055;-81
2022/05/23 00:48:22;;;;;;;8.68;5.47;;;23.80;99.90;;;;;;1914388;75;21094;-82
2022/05/23 00:51:16;;;;;;;8.53;5.37;;;23.80;99.90;;;;;;1917570;75;21127;-81
2022/05/23 00:54:08;;;;;;;8.33;5.37;;;23.80;99.90;;;;;;1904753;75;21055;-82
2022/05/23 00:57:00;;;;;;;10.58;5.50;;;23.70;99.90;;;;;;1901333;73;21108;-82
2022/05/23 00:59:51;;;;;;;7.83;5.20;;;23.60;99.90;;;;;;1906729;75;21051;-82
2022/05/23 01:02:46;;;;;;;9.33;5.35;;;23.70;99.90;;;;;;1893409;75;21105;-82
2022/05/23 01:05:39;;;;;;;7.62;5.20;;;23.60;99.90;;;;;;1895972;75;21086;-82
2022/05/23 01:08:30;;;;;;;11.35;5.20;;;23.60;99.90;;;;;;1916781;75;21055;-81
2022/05/23 01:14:00;;;;;;;8.33;5.40;;;23.70;99.90;;;;;;1948900;72;22236;-81
2022/05/23 01:19:51;;;;;;;11.78;5.08;;;23.80;99.90;;;;;;1954923;72;22095;-82
2022/05/23 01:23:11;;;;;;;7.65;4.95;;;23.70;99.90;;;;;;1891991;75;21570;-82
2022/05/23 01:29:19;;;;;;;7.85;5.30;;;23.50;99.90;;;;;;1957556;72;22178;-81
2022/05/23 01:32:30;;;;;;;9.03;5.00;;;23.50;99.90;;;;;;1905429;75;21111;-81
2022/05/23 01:35:40;;;;;;;6.97;4.67;;;23.50;99.90;;;;;;1884725;75;21055;-82
2022/05/23 01:38:32;;;;;;;9.38;4.70;;;23.40;99.90;;;;;;1898774;75;21096;-82
2022/05/23 01:41:44;;;;;;;8.03;5.00;;;23.30;99.90;;;;;;1893464;75;21060;-82
2022/05/23 01:47:19;;;;;;;6.87;4.90;;;23.20;99.90;;;;;;1942739;72;22236;-82
2022/05/23 01:50:33;;;;;;;8.15;4.60;;;23.10;99.90;;;;;;1887900;75;21052;-82
2022/05/23 01:53:45;;;;;;;7.30;4.62;;;23.10;99.90;;;;;;1890015;75;21495;-82
2022/05/23 01:56:37;;;;;;;9.25;4.90;;;23.00;99.90;;;;;;1893430;73;21621;-82
2022/05/23 02:03:00;;;;;;;6.42;4.45;;;22.90;99.90;;;;;;1883474;75;21117;-81
2022/05/23 02:05:53;;;;;;;9.83;5.05;;;22.90;99.90;;;;;;1888527;75;21051;-81
2022/05/23 02:08:44;;;;;;;8.13;4.80;;;22.80;99.90;;;;;;1892476;75;21095;-81
2022/05/23 02:11:36;;;;;;;8.13;4.95;;;22.80;99.90;;;;;;1890618;75;21059;-81
2022/05/23 02:14:28;;;;;;;9.58;4.97;;;22.80;99.90;;;;;;1894646;75;21051;-82
2022/05/23 02:17:21;;;;;;;11.70;5.25;;;22.70;99.90;;;;;;1888878;75;21055;-82
2022/05/23 02:20:21;;;;;;;10.13;5.03;;;22.70;99.90;;;;;;1883987;75;21157;-81
2022/05/23 02:23:14;;;;;;;8.68;4.70;;;22.70;99.90;;;;;;1886383;75;21121;-82
2022/05/23 02:26:05;;;;;;;12.95;5.30;;;22.70;99.90;;;;;;1886760;75;21056;-82
2022/05/23 02:29:08;;;;;;;9.45;5.42;;;22.60;99.90;;;;;;1881398;75;21139;-82
2022/05/23 02:32:00;;;;;;;10.70;4.78;;;22.50;99.90;;;;;;1903648;75;21059;-82
2022/05/23 02:34:51;;;;;;;8.15;5.08;;;22.60;99.90;;;;;;1883443;75;21112;-82
2022/05/23 02:37:44;;;;;;;9.95;5.00;;;22.50;99.90;;;;;;1889111;75;21547;-82
2022/05/23 02:40:36;;;;;;;10.58;4.62;;;22.50;99.90;;;;;;1900848;75;21080;-82
2022/05/23 02:43:28;;;;;;;10.70;5.28;;;22.50;99.90;;;;;;1899058;75;21103;-82
2022/05/23 02:46:21;;;;;;;10.53;5.20;;;22.50;99.90;;;;;;1883624;75;21152;-82
2022/05/23 02:49:14;;;;;;;10.00;6.25;;;22.50;99.90;;;;;;1891916;75;21510;-82
2022/05/23 02:52:08;;;;;;;12.80;5.65;;;22.50;99.90;;;;;;1887276;75;21591;-83
2022/05/23 02:55:03;;;;;;;11.60;6.22;;;22.30;99.90;;;;;;1883891;75;21055;-82
2022/05/23 02:57:55;;;;;;;11.03;5.70;;;22.20;99.90;;;;;;1924840;73;21095;-82
2022/05/23 03:00:48;;;;;;;11.97;5.83;;;21.90;99.90;;;;;;1882965;75;21169;-82
2022/05/23 03:06:18;;;;;;;8.55;5.35;;;21.80;99.90;;;;;;1949207;72;22259;-82
2022/05/23 03:09:32;;;;;;;11.53;5.83;;;21.70;99.90;;;;;;1892824;75;21098;-82
2022/05/23 03:12:42;;;;;;;9.95;5.42;;;21.60;99.90;;;;;;1904064;75;21076;-82
2022/05/23 03:15:34;;;;;;;9.80;5.55;;;21.60;99.90;;;;;;1895370;75;21094;-83
2022/05/23 03:18:45;;;;;;;9.03;5.67;;;21.60;99.90;;;;;;1881223;75;21061;-82
2022/05/23 03:27:56;;;;;;;11.68;6.30;;;21.60;99.90;;;;;;1914963;73;21113;-82
2022/05/23 03:30:50;;;;;;;10.25;6.33;;;21.50;99.90;;;;;;1895937;75;21137;-82
2022/05/23 03:33:42;;;;;;;10.55;5.70;;;21.40;99.90;;;;;;1903607;75;21134;-82
2022/05/23 03:36:33;;;;;;;10.88;6.40;;;21.40;99.90;;;;;;1899197;75;21097;-82
2022/05/23 03:39:25;;;;;;;10.95;6.45;;;21.40;99.90;;;;;;1899829;75;21051;-82
2022/05/23 03:42:17;;;;;;;13.48;6.75;;;21.30;99.90;;;;;;1885546;75;21056;-82
2022/05/23 03:45:12;;;;;;;11.83;6.72;;;21.20;99.90;;;;;;1893120;75;21099;-82
2022/05/23 03:48:06;;;;;;;10.03;6.65;;;21.20;99.90;;;;;;1903546;75;21173;-82
2022/05/23 03:50:57;;;;;;;11.95;6.72;;;21.10;99.90;;;;;;1897195;75;21183;-82
2022/05/23 03:56:29;;;;;;;12.98;6.67;;;21.00;99.90;;;;;;1941315;72;22091;-82
2022/05/23 03:59:38;;;;;;;11.03;6.72;;;20.90;99.90;;;;;;1869471;75;21092;-82
2022/05/23 04:02:48;;;;;;;12.85;6.42;;;20.90;99.90;;;;;;1885843;75;21084;-83
2022/05/23 04:05:42;;;;;;;11.28;6.60;;;20.80;99.90;;;;;;1883610;75;21063;-82
2022/05/23 04:08:54;;;;;;;15.03;7.25;;;20.80;99.90;;;;;;1880252;75;21110;-83
2022/05/23 04:14:25;;;;;;;15.32;6.87;;;20.80;99.90;;;;;;1952259;72;22181;-82
2022/05/23 04:17:36;;;;;;;11.45;6.90;;;20.80;99.90;;;;;;1897550;74;21155;-82
2022/05/23 04:20:46;;;;;;;10.45;7.08;;;20.80;99.90;;;;;;1884835;76;21172;-82
2022/05/23 04:23:39;;;;;;;11.63;6.17;;;20.70;99.90;;;;;;1908893;75;21117;-82
2022/05/23 04:26:53;;;;;;;14.53;7.10;;;20.80;99.90;;;;;;1896443;73;21098;-82
2022/05/23 04:29:45;;;;;;;11.28;6.95;;;20.80;99.90;;;;;;1873324;76;21204;-83
2022/05/23 04:35:17;;;;;;;9.55;6.47;;;20.70;99.90;;;;;;1933703;72;22118;-83
2022/05/23 04:38:27;;;;;;;9.00;5.85;;;20.80;99.90;;;;;;1917876;74;21102;-83
2022/05/23 04:44:22;;;;;;;12.53;7.15;;;20.70;99.90;;;;;;1934996;72;22227;-82
2022/05/23 04:50:59;;;;;;;;;;;20.80;99.90;;;;;;1908726;75;21094;-82
2022/05/23 04:53:53;;;;;;;9.30;6.90;;;20.80;99.90;;;;;;1900590;75;20116;-82
2022/05/23 04:56:46;;;;;;;13.15;7.08;;;20.70;99.90;;;;;;1895029;75;21185;-83
2022/05/23 04:59:40;;;;;;;8.83;7.10;;;20.70;99.90;;;;;;1907694;73;21128;-82
2022/05/23 05:02:32;;;;;;;10.28;6.72;;;20.80;99.90;;;;;;1908155;75;21129;-83
2022/05/23 05:05:24;;;;;;;9.35;6.92;;;20.80;99.90;;;;;;1903152;75;21149;-83
2022/05/23 05:08:16;;;;;;;13.18;6.47;;;20.80;99.90;;;;;;1899548;75;21229;-82
2022/05/23 05:11:09;;;;;;;11.38;7.00;;;20.80;99.90;;;;;;1906429;75;21114;-83
2022/05/23 05:14:02;;;;;;;10.28;6.45;;;20.80;99.90;;;;;;1906536;75;21139;-79
2022/05/23 05:16:55;;;;;;;12.20;7.62;;;20.90;99.90;;;;;;1906076;75;21560;-78
2022/05/23 05:19:46;;;;;;;13.50;7.20;;;20.90;99.90;;;;;;1881936;75;21071;-79
2022/05/23 05:22:56;;;;;;;7.45;6.25;;;20.90;99.90;;;;;;1899569;75;21054;-80
2022/05/23 05:28:44;;;;;;;9.38;6.25;;;21.00;99.90;;;;;;1938400;72;22201;-81
2022/05/23 05:31:57;;;;;;;9.63;6.33;;;21.00;99.90;;;;;;1872392;75;21546;-81
2022/05/23 05:35:11;;;;;;;11.73;6.90;;;21.00;99.90;;;;;;1900902;75;21165;-80
2022/05/23 05:38:05;;;;;;;10.72;6.60;;;21.10;99.90;;;;;;1899299;75;21094;-80
2022/05/23 05:41:19;;;;;;;10.55;6.08;;;21.20;99.90;;;;;;1882657;75;21107;-80
2022/05/23 05:44:14;;;;;;;13.62;6.50;;;21.30;99.90;;;;;;1852370;75;21372;-80
2022/05/23 05:47:10;;;;;;;12.93;5.95;;;21.30;99.90;;;;;;1892784;75;21103;-80
2022/05/23 05:50:07;;;;;;;9.45;6.00;;;21.30;99.90;;;;;;1895867;75;21217;-80
2022/05/23 05:53:03;;;;;;;8.85;5.90;;;21.40;99.90;;;;;;1904103;75;21558;-80
2022/05/23 05:55:55;;;;;;;9.98;6.10;;;21.50;99.90;;;;;;1885164;75;21134;-80
2022/05/23 05:58:48;;;;;;;8.78;5.75;;;21.60;99.90;;;;;;1909355;74;21059;-80
2022/05/23 06:01:40;;;;;;;11.22;5.60;;;21.40;99.90;;;;;;1879211;75;21107;-81
2022/05/23 06:04:34;;;;;;;8.55;5.42;;;21.40;99.90;;;;;;1902117;75;21127;-80
2022/05/23 06:16:30;;;;;;;8.65;6.22;;;21.70;99.90;;;;;;1953490;72;22608;-81
2022/05/23 06:19:44;;;;;;;9.55;5.70;;;21.70;99.90;;;;;;1884679;76;21129;-82
2022/05/23 06:25:46;;;;;;;10.32;5.45;;;21.80;99.90;;;;;;1937217;72;22522;-81
2022/05/23 06:28:58;;;;;;;11.05;6.08;;;21.90;99.90;;;;;;1896391;73;21163;-81
2022/05/23 06:32:09;;;;;;;9.80;5.90;;;22.00;99.90;;;;;;1896039;75;21570;-80
2022/05/23 06:35:00;;;;;;;7.83;5.45;;;22.10;99.90;;;;;;1897801;75;21213;-80
2022/05/23 06:38:12;;;;;;;7.20;5.80;;;22.10;99.90;;;;;;1891473;75;21092;-80
2022/05/23 06:41:06;;;;;;;15.10;6.42;;;22.20;99.90;;;;;;1840654;75;21119;-80
2022/05/23 06:44:11;;;;;;;12.10;5.92;;;22.20;99.90;;;;;;1897026;75;21111;-80
2022/05/23 06:47:13;;;;;;;9.98;5.60;;;22.30;99.90;;;;;;1818243;75;21145;-80
2022/05/23 06:50:24;;;;;;;10.25;5.70;;;22.30;99.90;;;;;;1900327;75;21117;-79
2022/05/23 06:53:33;;;;;;;10.85;5.47;;;22.40;99.90;;;;;;1894753;75;21946;-79
2022/05/23 06:59:07;;;;;;;10.38;5.78;;;22.60;99.90;;;;;;1910475;72;22256;-79
2022/05/23 07:02:18;;;;;;;10.40;5.85;;;22.70;99.90;;;;;;1918288;73;21039;-80
2022/05/23 07:12:28;;;;;;;9.55;5.60;;;22.80;99.90;;;;;;1919753;73;21192;-80
2022/05/23 07:15:21;;;;;;;8.30;5.65;;;22.70;99.90;;;;;;1922033;73;21391;-80
2022/05/23 07:18:12;;;;;;;14.58;6.22;;;22.70;99.90;;;;;;1924401;73;21156;-80
2022/05/23 07:21:07;;;;;;;8.55;5.55;;;22.50;99.90;;;;;;1918431;73;21103;-80
2022/05/23 07:24:12;;;;;;;10.00;6.15;;;22.50;99.90;;;;;;1924160;73;21061;-79
2022/05/23 07:27:06;;;;;;;9.20;5.97;;;22.60;99.90;;;;;;1925920;73;21102;-80
2022/05/23 07:29:59;;;;;;;8.40;6.12;;;22.50;99.90;;;;;;1885293;74;21168;-79
2022/05/23 07:32:52;;;;;;;9.93;6.22;;;22.50;99.90;;;;;;1889331;75;21111;-80
2022/05/23 07:35:46;;;;;;;7.03;5.47;;;22.60;99.90;;;;;;1842686;76;21563;-80
2022/05/23 07:38:38;;;;;;;11.95;5.55;;;22.50;99.90;;;;;;1922004;73;21123;-80
2022/05/23 07:41:32;;;;;;;8.85;5.50;;;22.40;99.90;;;;;;1927632;73;21155;-79
2022/05/23 07:44:25;;;;;;;9.50;5.35;;;22.50;99.90;;;;;;1923871;73;21059;-80
2022/05/23 07:47:18;;;;;;;10.53;5.45;;;22.60;99.90;;;;;;1918313;73;21102;-79
2022/05/23 07:50:21;;;;;;;9.90;5.50;;;22.70;99.90;;;;;;1890257;73;21517;-79
2022/05/23 08:05:14;;;;;;;9.18;4.60;;;23.30;99.90;;;;;;1947982;72;22241;-81
2022/05/23 08:08:27;;;;;;;8.53;4.78;;;23.40;99.90;;;;;;1907806;74;21199;-81
2022/05/23 08:11:38;;;;;;;8.68;4.83;;;23.50;99.90;;;;;;1915369;74;21193;-82
2022/05/23 08:14:37;;;;;;;10.88;5.10;;;23.70;99.90;;;;;;1905417;74;21129;-83
2022/05/23 08:17:49;;;;;;;11.30;5.10;;;23.90;99.90;;;;;;1913076;74;21147;-82
2022/05/23 08:20:53;;;;;;;10.78;5.20;;;24.10;99.90;;;;;;1905815;74;21159;-82
2022/05/23 08:23:47;;;;;;;9.35;4.92;;;24.30;99.90;;;;;;1874861;75;21071;-82
2022/05/23 08:26:43;;;;;;;5.97;4.28;;;24.40;99.90;;;;;;1912690;73;21131;-82
2022/05/23 08:29:36;;;;;;;12.95;4.72;;;24.70;99.90;;;;;;1906509;73;21148;-83
2022/05/23 08:32:30;;;;;;;10.23;4.97;;;24.80;99.90;;;;;;1909981;74;21882;-82
2022/05/23 08:35:27;;;;;;;11.65;4.70;;;24.80;99.90;;;;;;1905085;74;21160;-82
2022/05/23 08:41:08;;;;;;;6.97;5.05;;;24.80;99.90;;;;;;1942860;72;22282;-82
2022/05/23 08:44:25;;;;;;;8.60;4.80;;;24.60;99.90;;;;;;1905543;74;21128;-83
2022/05/23 08:47:42;;;;;;;10.25;4.60;;;24.20;99.90;;;;;;1908008;74;21559;-82
2022/05/23 08:50:43;;;;;;;10.20;5.47;;;23.90;99.90;;;;;;1903757;74;21486;-82
2022/05/23 08:53:57;;;;;;;9.83;4.72;;;23.90;99.90;;;;;;1908489;74;21014;-82
2022/05/23 08:57:06;;;;;;;6.65;4.75;;;23.70;99.90;;;;;;1851785;74;21154;-82
2022/05/23 09:00:04;;;;;;;6.95;4.20;;;23.70;99.90;;;;;;1897756;73;21181;-82
2022/05/23 09:03:00;;;;;;;7.90;4.08;;;23.70;99.90;;;;;;1905618;74;21204;-82
2022/05/23 09:05:59;;;;;;;8.48;4.12;;;23.70;99.90;;;;;;1897905;74;21163;-82
2022/05/23 09:08:54;;;;;;;8.13;4.30;;;23.70;99.90;;;;;;1911357;74;21111;-84
2022/05/23 09:11:48;;;;;;;8.53;4.22;;;23.70;99.90;;;;;;1901573;74;21205;-82
2022/05/23 09:14:40;;;;;;;6.78;3.70;;;23.80;99.90;;;;;;1914617;74;21209;-82
2022/05/23 09:17:37;;;;;;;8.05;3.50;;;23.90;99.90;;;;;;1908573;74;21173;-82
2022/05/23 09:20:34;;;;;;;6.45;3.65;;;23.90;99.90;;;;;;1911705;74;21619;-82
2022/05/23 09:23:29;;;;;;;6.90;3.98;;;24.10;99.90;;;;;;1909626;74;21643;-82
2022/05/23 09:26:24;;;;;;;7.05;3.33;;;24.10;99.90;;;;;;1906119;74;21260;-82
2022/05/23 09:29:16;;;;;;;6.42;3.62;;;24.30;99.90;;;;;;1905789;74;21081;-82
2022/05/23 09:32:10;;;;;;;9.68;3.30;;;24.40;99.90;;;;;;1908518;74;21136;-82
2022/05/23 09:35:08;;;;;;;8.28;3.62;;;24.50;99.90;;;;;;1916095;74;21417;-82
2022/05/23 09:38:15;;;;;;;6.05;3.35;;;24.50;99.90;;;;;;1904741;74;21170;-81
2022/05/23 09:47:59;;;;;;;8.03;3.35;;;24.40;99.90;;;;;;1905440;74;21143;-82
2022/05/23 09:53:55;;;;;;;5.83;3.35;;;24.40;99.90;;;;;;1937026;72;22872;-83
2022/05/23 09:57:09;;;;;;;8.33;4.05;;;24.40;99.90;;;;;;1899611;73;21760;-82
2022/05/23 10:00:35;;;;;;;5.75;3.15;;;24.40;99.90;;;;;;1897737;75;21133;-82
2022/05/23 10:03:31;;;;;;;4.72;3.17;;;24.50;99.90;;;;;;1905206;75;21234;-83
2022/05/23 10:06:46;;;;;;;8.80;3.27;;;24.50;99.90;;;;;;1891631;75;21204;-83
2022/05/23 10:09:37;;;;;;;6.75;3.20;;;24.70;99.90;;;;;;1895751;75;21622;-82
2022/05/23 10:12:44;;;;;;;6.17;3.20;;;24.90;99.90;;;;;;1872878;75;21114;-83
2022/05/23 10:15:44;;;;;;;6.22;3.17;;;24.80;99.90;;;;;;1896111;75;21125;-83
2022/05/23 10:18:39;;;;;;;4.75;3.30;;;24.80;99.90;;;;;;1908229;75;21100;-83
2022/05/23 10:21:34;;;;;;;6.17;3.12;;;24.90;99.90;;;;;;1907501;75;21155;-83
2022/05/23 10:24:29;;;;;;;4.50;2.75;;;24.90;99.90;;;;;;1903896;73;21145;-83
2022/05/23 10:27:29;;;;;;;8.05;3.05;;;25.10;99.90;;;;;;1906929;73;21110;-84
2022/05/23 10:30:23;;;;;;;8.25;3.22;;;25.10;99.90;;;;;;1893243;75;21876;-83
2022/05/23 10:33:16;;;;;;;4.37;2.72;;;25.10;99.90;;;;;;1904750;73;21148;-83
2022/05/23 10:36:13;;;;;;;5.42;3.15;;;25.10;99.90;;;;;;1903162;75;21102;-83
2022/05/23 10:42:21;;;;;;;5.80;2.98;;;25.30;99.90;;;;;;1895910;75;21119;-84
2022/05/23 10:45:30;;;;;;;6.80;3.05;;;25.50;99.90;;;;;;1900080;75;21084;-83
2022/05/23 10:48:38;;;;;;;6.15;3.00;;;25.50;99.90;;;;;;1893573;75;21136;-83
2022/05/23 10:51:35;;;;;;;10.20;3.20;;;25.50;99.90;;;;;;1891579;75;21672;-84
2022/05/23 10:54:38;;;;;;;6.97;2.83;;;25.60;99.90;;;;;;1898710;73;21217;-83
2022/05/23 10:57:36;;;;;;;4.65;2.72;;;25.50;99.90;;;;;;1900471;73;21676;-83
2022/05/23 11:00:32;;;;;;;5.05;2.40;;;25.50;99.90;;;;;;1898816;75;21233;-83
2022/05/23 11:03:29;;;;;;;5.75;2.98;;;25.30;99.90;;;;;;1899314;75;21232;-83
2022/05/23 11:06:24;;;;;;;4.65;2.35;;;25.40;99.90;;;;;;1865546;76;21197;-84
2022/05/23 11:12:09;;;;;;;9.30;2.72;;;25.50;99.90;;;;;;1919044;72;22268;-83
2022/05/23 11:15:30;;;;;;;5.50;2.77;;;25.60;99.90;;;;;;1890143;75;21575;-83
2022/05/23 11:18:52;;;;;;;7.22;2.80;;;25.70;99.90;;;;;;1895732;74;21095;-84
2022/05/23 11:21:49;;;;;;;7.80;3.05;;;25.70;99.90;;;;;;1890891;75;21131;-84
2022/05/23 11:25:02;;;;;;;9.13;3.22;;;25.70;99.90;;;;;;1887824;74;21141;-83
2022/05/23 11:34:32;;;;;;;11.48;3.25;;;25.70;99.90;;;;;;1903095;75;21063;-84
2022/05/23 11:37:45;;;;;;;6.95;2.98;;;25.80;99.90;;;;;;1917250;75;21192;-83
2022/05/23 11:41:04;;;;;;;8.05;2.80;;;25.70;99.90;;;;;;1916895;75;21121;-84
2022/05/23 11:43:57;;;;;;;10.43;3.22;;;25.50;99.90;;;;;;1916277;74;21060;-83
2022/05/23 11:47:08;;;;;;;11.75;3.35;;;25.60;99.90;;;;;;1917042;75;21126;-84
2022/05/23 11:50:16;;;;;;;19.48;3.05;;;25.60;99.90;;;;;;1899082;75;21113;-83
2022/05/23 11:53:15;;;;;;;7.17;2.27;;;25.40;99.90;;;;;;1898213;75;21117;-82
2022/05/23 11:56:09;;;;;;;10.18;3.15;;;25.40;99.90;;;;;;1893688;75;21116;-83
2022/05/23 11:59:05;;;;;;;10.28;3.62;;;25.40;99.90;;;;;;1916142;75;21070;-83
2022/05/23 12:02:23;;;;;;;12.05;3.20;;;25.40;99.90;;;;;;1914907;75;21178;-83
2022/05/23 12:05:31;;;;;;;10.35;3.25;;;25.50;99.90;;;;;;1917246;75;21109;-84
2022/05/23 12:08:39;;;;;;;8.93;3.00;;;25.60;99.90;;;;;;1917245;75;21146;-85
2022/05/23 12:11:32;;;;;;;15.48;3.65;;;26.10;99.90;;;;;;1926776;73;21083;-84
2022/05/23 12:14:33;;;;;;;13.50;3.15;;;26.00;99.90;;;;;;1889668;76;21187;-85
2022/05/23 12:17:28;;;;;;;7.20;3.08;;;26.00;99.90;;;;;;1911450;74;21100;-84
2022/05/23 12:20:26;;;;;;;7.22;3.15;;;26.20;99.90;;;;;;1889855;76;21198;-83
2022/05/23 12:23:22;;;;;;;7.42;3.27;;;26.30;99.90;;;;;;1932840;74;21169;-84
2022/05/23 12:26:26;;;;;;;7.62;3.00;;;26.20;99.90;;;;;;1887288;76;21070;-83
2022/05/23 12:29:30;;;;;;;9.25;2.98;;;26.30;99.90;;;;;;1920823;74;21061;-84
2022/05/23 12:32:28;;;;;;;4.70;2.70;;;26.50;99.90;;;;;;1854743;77;21360;-83
2022/05/23 12:35:22;;;;;;;15.08;3.40;;;26.40;99.90;;;;;;1870559;76;21055;-84
2022/05/23 12:38:19;;;;;;;7.35;3.30;;;26.70;99.90;;;;;;1907522;74;21097;-84
2022/05/23 12:41:18;;;;;;;15.90;3.98;;;27.10;99.90;;;;;;1889075;76;21098;-84
2022/05/23 12:44:27;;;;;;;12.53;3.92;;;26.90;99.90;;;;;;1932782;74;21071;-83
2022/05/23 12:47:27;;;;;;;13.55;3.37;;;26.50;99.90;;;;;;1889473;76;21564;-84
2022/05/23 12:50:24;;;;;;;7.15;3.12;;;26.50;99.90;;;;;;1867199;76;21080;-93
2022/05/23 12:53:40;;;;;;;16.20;4.10;;;26.60;99.90;;;;;;1853692;77;21134;-83
2022/05/23 12:56:43;;;;;;;10.78;2.75;;;26.30;99.90;;;;;;1860190;77;21107;-80
2022/05/23 12:59:51;;;;;;;6.15;3.52;;;26.10;99.90;;;;;;1823894;78;21144;-85
2022/05/23 13:02:48;;;;;;;8.10;3.20;;;26.10;99.90;;;;;;1838108;77;21069;-83
2022/05/23 13:05:43;;;;;;;8.98;2.92;;;26.20;99.90;;;;;;1856120;77;21121;-85
2022/05/23 13:08:40;;;;;;;9.40;3.37;;;26.30;99.90;;;;;;1908198;74;21141;-82
2022/05/23 13:11:35;;;;;;;7.17;3.02;;;26.30;99.90;;;;;;1885729;76;21083;-84
2022/05/23 13:14:29;;;;;;;5.72;2.90;;;26.30;99.90;;;;;;1898583;75;21101;-82
2022/05/23 13:17:38;;;;;;;5.67;2.65;;;26.30;99.90;;;;;;1897655;75;21062;-81
2022/05/23 13:23:41;;;;;;;7.62;3.12;;;26.30;99.90;;;;;;1895794;75;21058;-83
2022/05/23 13:26:33;;;;;;;5.58;3.15;;;26.40;99.90;;;;;;1925452;74;21159;-83
2022/05/23 13:29:27;;;;;;;4.50;2.90;;;26.30;99.90;;;;;;1879540;76;21549;-84
2022/05/23 13:32:19;;;;;;;7.78;3.22;;;26.40;99.90;;;;;;1901742;75;21111;-83
2022/05/23 13:35:21;;;;;;;7.75;3.35;;;26.50;99.90;;;;;;1898502;75;21167;-84
2022/05/23 13:38:22;;;;;;;8.20;3.05;;;26.60;99.90;;;;;;1904293;74;21550;-83
2022/05/23 13:41:27;;;;;;;4.58;3.10;;;26.80;99.90;;;;;;1879887;76;21055;-84
2022/05/23 13:44:24;;;;;;;7.40;3.62;;;26.90;99.90;;;;;;1879984;76;21054;-83
2022/05/23 13:47:19;;;;;;;6.05;3.30;;;26.90;99.90;;;;;;1916813;75;21608;-84
2022/05/23 13:50:15;;;;;;;5.95;3.10;;;27.10;99.90;;;;;;1916689;75;21064;-82
2022/05/23 13:53:10;;;;;;;13.40;3.12;;;27.20;99.90;;;;;;1916881;75;21086;-83
2022/05/23 13:56:04;;;;;;;5.80;3.15;;;27.60;99.90;;;;;;1895752;75;21159;-85
2022/05/23 13:59:03;;;;;;;5.97;3.05;;;27.80;99.90;;;;;;1916457;75;21100;-84
2022/05/23 14:01:58;;;;;;;5.58;3.08;;;27.80;99.90;;;;;;1916893;75;21127;-82
2022/05/23 14:04:56;;;;;;;5.05;2.70;;;28.00;99.90;;;;;;1916782;75;21198;-83
2022/05/23 14:07:48;;;;;;;5.90;3.30;;;28.20;99.90;;;;;;1916706;75;21549;-83
2022/05/23 14:10:44;;;;;;;6.10;3.15;;;28.50;99.90;;;;;;1909995;73;21158;-83
2022/05/23 14:13:36;;;;;;;6.90;3.17;;;28.40;99.90;;;;;;1935361;73;21149;-89
2022/05/23 14:16:29;;;;;;;3.55;3.10;;;28.50;99.90;;;;;;1907189;75;21180;-85
2022/05/23 14:19:23;;;;;;;8.58;3.35;;;28.70;99.90;;;;;;1916725;75;21070;-83
2022/05/23 14:22:23;;;;;;;6.60;3.40;;;28.80;99.90;;;;;;1904794;75;21148;-84
2022/05/23 14:25:22;;;;;;;6.03;3.10;;;28.90;99.90;;;;;;1904763;74;21139;-82
2022/05/23 14:28:20;;;;;;;7.83;3.50;;;28.80;99.90;;;;;;1903962;75;21076;-83
2022/05/23 14:31:10;;;;;;;;;;;28.50;99.90;;;;;;1907125;75;21095;-82
2022/05/23 14:34:06;;;;;;;6.92;3.67;;;28.20;99.90;;;;;;1904375;75;20192;-82
2022/05/23 14:37:01;;;;;;;5.75;3.25;;;28.00;99.90;;;;;;1899047;75;21153;-83
2022/05/23 14:39:53;;;;;;;6.85;3.40;;;28.40;99.90;;;;;;1892524;75;21112;-83
2022/05/23 14:42:48;;;;;;;5.35;3.60;;;28.30;99.90;;;;;;1904057;75;21061;-84
2022/05/23 14:45:53;;;;;;;5.40;3.80;;;28.50;99.90;;;;;;1904302;75;21116;-83
2022/05/23 14:48:56;;;;;;;6.60;4.05;;;28.50;99.90;;;;;;1916738;74;21196;-84
2022/05/23 14:51:48;;;;;;;7.03;4.10;;;28.20;99.90;;;;;;1902656;75;21120;-82
2022/05/23 15:01:09;;;;;;;8.35;4.47;;;27.50;99.90;;;;;;1886413;75;21537;-83
2022/05/23 15:04:01;;;;;;;5.15;3.65;;;27.30;99.90;;;;;;1904742;75;21146;-84
2022/05/23 15:06:54;;;;;;;5.70;3.72;;;27.30;99.90;;;;;;1904260;75;21091;-85
2022/05/23 15:09:46;;;;;;;5.42;3.87;;;27.10;99.90;;;;;;1904492;74;21536;-83
2022/05/23 15:12:39;;;;;;;6.53;3.72;;;27.00;99.90;;;;;;1883909;75;21542;-84
2022/05/23 15:15:32;;;;;;;7.00;4.00;;;27.00;99.90;;;;;;1913912;75;21182;-84
2022/05/23 15:18:27;;;;;;;8.25;4.20;;;26.90;99.90;;;;;;1915135;75;21068;-83
2022/05/23 15:21:19;;;;;;;6.15;3.98;;;26.80;99.90;;;;;;1916717;75;21603;-83
2022/05/23 15:24:11;;;;;;;5.83;3.70;;;26.80;99.90;;;;;;1904121;75;21513;-83
2022/05/23 15:27:03;;;;;;;5.25;4.20;;;26.90;99.90;;;;;;1895868;75;21116;-84
2022/05/23 15:29:59;;;;;;;4.60;3.90;;;27.20;99.90;;;;;;1904126;75;21068;-84
2022/05/23 15:32:51;;;;;;;6.03;3.70;;;27.30;99.90;;;;;;1903849;75;21171;-83
2022/05/23 15:35:43;;;;;;;5.37;3.70;;;27.20;99.90;;;;;;1904350;75;21132;-84
2022/05/23 15:38:35;;;;;;;7.85;3.80;;;27.10;99.90;;;;;;1916491;74;21068;-84
2022/05/23 15:41:27;;;;;;;7.03;4.00;;;27.20;99.90;;;;;;1916525;75;21142;-83
2022/05/23 15:44:20;;;;;;;5.67;4.10;;;27.30;99.90;;;;;;1904059;74;21164;-83
2022/05/23 15:47:15;;;;;;;6.08;3.90;;;27.30;99.90;;;;;;1916467;75;21620;-84
2022/05/23 15:50:08;;;;;;;5.83;3.80;;;27.40;99.90;;;;;;1904287;75;21130;-84
2022/05/23 15:53:01;;;;;;;8.40;3.98;;;27.50;99.90;;;;;;1896427;75;21078;-83
2022/05/23 15:55:53;;;;;;;6.03;4.30;;;27.30;99.90;;;;;;1904420;75;21115;-84
2022/05/23 15:58:46;;;;;;;5.72;3.27;;;27.40;99.90;;;;;;1912351;75;21076;-86
2022/05/23 16:01:38;;;;;;;5.17;4.10;;;27.80;99.90;;;;;;1902792;75;21111;-85
2022/05/23 16:04:32;;;;;;;5.17;3.75;;;27.60;99.90;;;;;;1904563;75;21498;-84
2022/05/23 16:07:25;;;;;;;6.47;4.03;;;27.80;99.90;;;;;;1884565;75;21066;-85
2022/05/23 16:10:18;;;;;;;5.78;3.75;;;27.60;99.90;;;;;;1912867;74;21201;-83
2022/05/23 16:13:13;;;;;;;7.15;4.17;;;27.70;99.90;;;;;;1938305;74;21138;-85
2022/05/23 16:16:09;;;;;;;4.80;3.80;;;29.00;99.90;;;;;;1878505;74;21129;-84
2022/05/23 16:19:04;;;;;;;7.45;4.47;;;29.70;99.90;;;;;;1859593;76;21074;-83
2022/05/23 16:21:58;;;;;;;8.58;4.65;;;30.60;99.90;;;;;;1877337;76;21095;-84
2022/05/23 16:24:50;;;;;;;7.55;4.25;;;31.10;99.90;;;;;;1877252;76;21131;-83
2022/05/23 16:30:24;;;;;;;8.53;4.40;;;29.80;99.90;;;;;;1957854;72;22132;-83
2022/05/23 16:37:03;;;;;;;7.72;3.80;;;29.00;99.90;;;;;;1917273;75;21576;-83
2022/05/23 16:39:56;;;;;;;7.42;3.90;;;27.60;99.90;;;;;;1896066;75;21204;-83
2022/05/23 16:43:09;;;;;;;7.47;4.30;;;27.20;99.90;;;;;;1895295;75;21549;-83
2022/05/23 16:46:04;;;;;;;4.92;3.47;;;27.50;99.90;;;;;;1917342;75;21147;-84
2022/05/23 16:48:57;;;;;;;7.60;3.67;;;27.30;99.90;;;;;;1893234;75;21138;-84
2022/05/23 16:51:48;;;;;;;5.80;3.10;;;27.20;99.90;;;;;;1884833;76;21132;-83
2022/05/23 16:54:40;;;;;;;8.53;3.58;;;26.60;99.90;;;;;;1899074;75;21055;-85
2022/05/23 16:57:33;;;;;;;6.35;3.52;;;26.30;99.90;;;;;;1895270;75;21051;-83
2022/05/23 17:00:24;;;;;;;8.55;3.87;;;26.00;99.90;;;;;;1912617;75;21059;-83
2022/05/23 17:03:18;;;;;;;6.58;3.40;;;25.80;99.90;;;;;;1869188;76;21101;-82
2022/05/23 17:06:11;;;;;;;6.25;3.60;;;25.70;99.90;;;;;;1900495;75;21094;-82
2022/05/23 17:09:03;;;;;;;5.53;3.30;;;25.60;99.90;;;;;;1895681;75;21125;-82
2022/05/23 17:11:55;;;;;;;6.55;3.52;;;25.60;99.90;;;;;;1909721;75;21096;-83
2022/05/23 17:14:47;;;;;;;4.92;3.10;;;25.50;99.90;;;;;;1870170;76;21079;-84
2022/05/23 17:17:39;;;;;;;5.37;3.22;;;25.40;99.90;;;;;;1884746;76;21131;-83
2022/05/23 17:20:32;;;;;;;6.25;3.17;;;25.30;99.90;;;;;;1896918;75;21106;-84
2022/05/23 17:23:26;;;;;;;7.53;3.40;;;25.20;99.90;;;;;;1895311;75;21503;-84
2022/05/23 17:26:17;;;;;;;5.72;3.42;;;25.20;99.90;;;;;;1895685;75;21054;-82
2022/05/23 17:29:08;;;;;;;6.15;3.70;;;25.10;99.90;;;;;;1898136;75;21128;-83
2022/05/23 17:32:01;;;;;;;7.72;3.62;;;25.10;99.90;;;;;;1899146;75;21126;-83
2022/05/23 17:34:53;;;;;;;5.65;3.70;;;25.10;99.90;;;;;;1895453;75;21055;-83